createdAt,value
2022-09-18T00:01:43.063Z,17.80
2022-09-18T00:04:15.125Z,18.60
2022-09-18T00:06:45.725Z,18.00
2022-09-18T00:09:16.358Z,15.70
2022-09-18T00:11:49.444Z,17.80
2022-09-18T00:14:22.737Z,18.20
2022-09-18T00:16:52.349Z,19.00
2022-09-18T00:19:22.900Z,18.40
2022-09-18T00:21:52.410Z,17.70
2022-09-18T00:24:23.520Z,17.40
2022-09-18T00:26:51.521Z,17.20
2022-09-18T00:29:21.919Z,18.30
2022-09-18T00:31:49.990Z,17.50
2022-09-18T00:34:20.619Z,18.20
2022-09-18T00:36:48.624Z,17.90
2022-09-18T00:39:18.376Z,15.60
2022-09-18T00:41:49.336Z,16.00
2022-09-18T00:44:35.878Z,17.40
2022-09-18T00:47:17.928Z,16.20
2022-09-18T00:50:04.684Z,16.80
2022-09-18T00:52:47.235Z,16.50
2022-09-18T00:55:19.165Z,16.70
2022-09-18T00:57:52.111Z,17.60
2022-09-18T01:00:20.952Z,16.20
2022-09-18T01:02:51.092Z,17.50
2022-09-18T01:05:41.770Z,16.60
2022-09-18T01:08:44.212Z,17.20
2022-09-18T01:11:38.443Z,14.70
2022-09-18T01:14:31.927Z,15.00
2022-09-18T01:17:02.821Z,15.50
2022-09-18T01:20:11.727Z,16.00
2022-09-18T01:23:05.346Z,14.60
2022-09-18T01:25:52.317Z,15.30
2022-09-18T01:28:30.505Z,16.40
2022-09-18T01:31:09.871Z,16.70
2022-09-18T01:33:50.288Z,15.50
2022-09-18T01:36:24.929Z,16.00
2022-09-18T01:39:01.966Z,17.00
2022-09-18T01:41:31.677Z,16.30
2022-09-18T01:44:13.414Z,15.80
2022-09-18T01:46:44.628Z,17.00
2022-09-18T01:49:20.570Z,16.40
2022-09-18T01:52:02.923Z,16.90
2022-09-18T01:54:39.476Z,16.00
2022-09-18T01:57:36.410Z,15.90
2022-09-18T02:00:10.521Z,16.50
2022-09-18T02:02:45.723Z,15.50
2022-09-18T02:05:49.814Z,18.00
2022-09-18T02:08:29.391Z,15.90
2022-09-18T02:11:08.938Z,15.70
2022-09-18T02:13:56.055Z,16.20
2022-09-18T02:16:36.639Z,15.50
2022-09-18T02:19:35.635Z,16.00
2022-09-18T02:22:09.667Z,16.20
2022-09-18T02:24:41.773Z,16.90
2022-09-18T02:27:13.929Z,16.10
2022-09-18T02:29:46.552Z,15.30
2022-09-18T02:32:14.597Z,15.30
2022-09-18T02:34:42.886Z,16.50
2022-09-18T02:37:18.889Z,15.40
2022-09-18T02:40:02.387Z,15.50
2022-09-18T02:43:03.694Z,15.70
2022-09-18T02:45:55.977Z,14.60
2022-09-18T02:48:24.134Z,15.10
2022-09-18T02:51:10.243Z,15.40
2022-09-18T02:54:05.160Z,15.40
2022-09-18T02:56:59.381Z,15.40
2022-09-18T02:59:40.902Z,14.80
2022-09-18T03:02:10.490Z,15.20
2022-09-18T03:04:40.576Z,15.70
2022-09-18T03:07:16.477Z,14.40
2022-09-18T03:09:45.652Z,14.70
2022-09-18T03:12:15.465Z,14.60
2022-09-18T03:14:45.212Z,13.70
2022-09-18T03:17:14.904Z,15.30
2022-09-18T03:19:45.435Z,14.80
2022-09-18T03:22:13.651Z,13.60
2022-09-18T03:24:43.488Z,14.70
2022-09-18T03:27:13.434Z,13.80
2022-09-18T03:29:43.554Z,13.60
2022-09-18T03:32:13.675Z,13.80
2022-09-18T03:34:41.650Z,13.60
2022-09-18T03:37:09.931Z,13.90
2022-09-18T03:39:39.942Z,13.10
2022-09-18T03:42:07.883Z,14.00
2022-09-18T03:44:35.788Z,14.70
2022-09-18T03:47:05.993Z,14.40
2022-09-18T03:49:34.176Z,15.20
2022-09-18T03:52:04.484Z,13.10
2022-09-18T03:54:32.213Z,13.40
2022-09-18T03:57:01.967Z,13.70
2022-09-18T03:59:29.631Z,13.50
2022-09-18T04:01:59.485Z,14.00
2022-09-18T04:04:30.003Z,14.50
2022-09-18T04:06:58.038Z,14.20
2022-09-18T04:09:26.136Z,14.10
2022-09-18T04:11:55.788Z,14.20
2022-09-18T04:14:27.943Z,12.60
2022-09-18T04:16:57.959Z,13.00
2022-09-18T04:19:26.260Z,13.50
2022-09-18T04:21:54.348Z,12.40
2022-09-18T04:24:22.372Z,13.60
2022-09-18T04:26:50.681Z,13.30
2022-09-18T04:29:18.773Z,12.30
2022-09-18T04:31:46.529Z,12.50
2022-09-18T04:34:17.927Z,13.50
2022-09-18T04:36:46.047Z,13.30
2022-09-18T04:39:13.850Z,13.20
2022-09-18T04:41:43.441Z,12.50
2022-09-18T04:44:11.416Z,11.70
2022-09-18T04:46:39.344Z,9.60
2022-09-18T04:49:07.797Z,10.10
2022-09-18T04:51:36.037Z,9.40
2022-09-18T04:54:04.442Z,9.40
2022-09-18T04:56:32.166Z,9.30
2022-09-18T04:59:02.083Z,8.70
2022-09-18T05:01:30.907Z,8.80
2022-09-18T05:03:58.938Z,7.80
2022-09-18T05:06:28.645Z,8.30
2022-09-18T05:08:59.472Z,7.40
2022-09-18T05:11:31.266Z,7.60
2022-09-18T05:14:00.125Z,7.20
2022-09-18T05:16:28.485Z,6.90
2022-09-18T05:18:57.722Z,6.20
2022-09-18T05:21:27.650Z,6.20
2022-09-18T05:23:55.580Z,6.30
2022-09-18T05:26:23.618Z,6.80
2022-09-18T05:28:51.837Z,6.50
2022-09-18T05:31:19.595Z,6.50
2022-09-18T05:33:50.182Z,7.60
2022-09-18T05:36:18.112Z,7.20
2022-09-18T05:38:46.010Z,6.80
2022-09-18T05:41:14.037Z,6.50
2022-09-18T05:43:47.717Z,7.00
2022-09-18T05:46:15.693Z,6.70
2022-09-18T05:48:43.714Z,7.20
2022-09-18T05:51:11.698Z,7.30
2022-09-18T05:53:39.914Z,6.80
2022-09-18T05:56:10.117Z,7.50
2022-09-18T05:58:38.369Z,7.40
2022-09-18T06:01:06.593Z,6.00
2022-09-18T06:03:34.493Z,5.40
2022-09-18T06:06:02.188Z,4.00
2022-09-18T06:08:31.746Z,4.20
2022-09-18T06:11:03.766Z,3.70
2022-09-18T06:13:32.620Z,3.60
2022-09-18T06:16:00.940Z,3.70
2022-09-18T06:18:30.483Z,4.30
2022-09-18T06:21:00.965Z,4.80
2022-09-18T06:23:30.672Z,4.00
2022-09-18T06:26:04.433Z,3.60
2022-09-18T06:28:34.573Z,4.20
2022-09-18T06:31:06.024Z,4.30
2022-09-18T06:36:10.733Z,3.70
2022-09-18T06:38:41.303Z,3.40
2022-09-18T06:41:10.665Z,2.70
2022-09-18T06:43:38.636Z,3.40
2022-09-18T06:46:08.706Z,3.90
2022-09-18T06:48:39.462Z,3.60
2022-09-18T06:51:09.966Z,3.50
2022-09-18T06:53:39.924Z,3.60
2022-09-18T06:56:08.207Z,3.80
2022-09-18T06:58:36.277Z,4.20
2022-09-18T07:01:04.408Z,3.80
2022-09-18T07:03:32.184Z,3.60
2022-09-18T07:06:01.885Z,3.80
2022-09-18T07:08:32.100Z,3.20
2022-09-18T07:11:02.583Z,3.60
2022-09-18T07:13:34.088Z,3.60
2022-09-18T07:16:02.422Z,3.30
2022-09-18T07:18:34.429Z,3.80
2022-09-18T07:21:03.310Z,3.20
2022-09-18T07:23:34.841Z,3.20
2022-09-18T07:26:05.373Z,3.80
2022-09-18T07:28:35.777Z,3.50
2022-09-18T07:31:08.546Z,3.60
2022-09-18T07:33:38.257Z,2.90
2022-09-18T07:36:08.130Z,3.20
2022-09-18T07:38:37.721Z,3.00
2022-09-18T07:41:06.137Z,3.20
2022-09-18T07:43:35.859Z,3.00
2022-09-18T07:46:05.787Z,3.30
2022-09-18T07:48:35.767Z,2.80
2022-09-18T07:51:05.965Z,3.20
2022-09-18T07:53:33.921Z,4.00
2022-09-18T07:56:12.129Z,3.50
2022-09-18T07:58:41.764Z,3.20
2022-09-18T08:01:13.707Z,3.10
2022-09-18T08:03:41.961Z,3.00
2022-09-18T08:06:13.796Z,3.70
2022-09-18T08:08:41.771Z,3.60
2022-09-18T08:11:10.180Z,3.20
2022-09-18T08:13:40.304Z,3.00
2022-09-18T08:16:10.376Z,3.70
2022-09-18T08:18:39.845Z,2.80
2022-09-18T08:21:10.863Z,2.70
2022-09-18T08:23:39.977Z,3.10
2022-09-18T08:26:10.495Z,3.30
2022-09-18T08:28:40.598Z,2.90
2022-09-18T08:31:11.155Z,3.10
2022-09-18T08:33:41.550Z,2.90
2022-09-18T08:36:11.971Z,3.60
2022-09-18T08:38:41.976Z,2.90
2022-09-18T08:41:49.701Z,3.00
2022-09-18T08:44:32.076Z,2.70
2022-09-18T08:47:12.872Z,2.90
2022-09-18T08:50:05.029Z,2.90
2022-09-18T08:52:40.183Z,3.10
2022-09-18T08:55:30.476Z,3.00
2022-09-18T08:58:14.080Z,3.50
2022-09-18T09:00:48.712Z,2.70
2022-09-18T09:03:47.545Z,2.50
2022-09-18T09:06:49.071Z,3.30
2022-09-18T09:09:21.850Z,3.10
2022-09-18T09:12:29.693Z,2.50
2022-09-18T09:15:05.493Z,3.00
2022-09-18T09:18:03.566Z,3.80
2022-09-18T09:21:11.627Z,2.90
2022-09-18T09:24:10.056Z,2.50
2022-09-18T09:26:42.530Z,2.30
2022-09-18T09:29:29.403Z,3.10
2022-09-18T09:32:28.748Z,2.70
2022-09-18T09:35:16.962Z,2.80
2022-09-18T09:37:49.116Z,2.20
2022-09-18T09:40:43.246Z,2.50
2022-09-18T09:43:28.205Z,1.90
2022-09-18T09:46:04.572Z,2.60
2022-09-18T09:48:49.990Z,2.50
2022-09-18T09:51:53.647Z,2.20
2022-09-18T09:54:22.138Z,2.80
2022-09-18T09:57:03.414Z,2.70
2022-09-18T09:59:39.721Z,2.50
2022-09-18T10:02:46.813Z,2.30
2022-09-18T10:05:46.878Z,2.60
2022-09-18T10:08:40.879Z,2.70
2022-09-18T10:11:13.473Z,2.70
2022-09-18T10:13:53.898Z,2.40
2022-09-18T10:16:34.111Z,2.30
2022-09-18T10:19:06.673Z,2.10
2022-09-18T10:21:41.822Z,1.80
2022-09-18T10:24:18.072Z,1.60
2022-09-18T10:27:02.762Z,2.10
2022-09-18T10:29:33.890Z,1.20
2022-09-18T10:32:14.037Z,1.90
2022-09-18T10:34:50.483Z,1.90
2022-09-18T10:37:30.785Z,1.90
2022-09-18T10:40:01.974Z,1.80
2022-09-18T10:42:35.558Z,2.10
2022-09-18T10:45:26.468Z,2.30
2022-09-18T10:48:14.906Z,3.00
2022-09-18T10:51:06.675Z,2.80
2022-09-18T10:53:42.759Z,2.40
2022-09-18T10:56:21.652Z,3.00
2022-09-18T10:58:52.621Z,2.70
2022-09-18T11:01:24.621Z,3.20
2022-09-18T11:04:03.255Z,3.00
2022-09-18T11:06:38.772Z,3.50
2022-09-18T11:09:18.595Z,3.30
2022-09-18T11:11:52.214Z,2.80
2022-09-18T11:14:31.118Z,3.40
2022-09-18T11:17:02.961Z,4.20
2022-09-18T11:19:42.766Z,3.10
2022-09-18T11:22:54.006Z,3.20
2022-09-18T11:25:30.414Z,2.90
2022-09-18T11:28:03.097Z,3.60
2022-09-18T11:30:39.049Z,2.90
2022-09-18T11:33:10.348Z,3.10
2022-09-18T11:35:55.410Z,3.40
2022-09-18T11:38:27.556Z,2.70
2022-09-18T11:41:03.458Z,2.70
2022-09-18T11:43:40.393Z,2.90
2022-09-18T11:46:30.406Z,2.70
2022-09-18T11:49:26.206Z,2.80
2022-09-18T11:52:05.546Z,3.20
2022-09-18T11:54:38.337Z,2.60
2022-09-18T11:57:23.055Z,4.00
2022-09-18T12:00:04.103Z,2.70
2022-09-18T12:02:41.510Z,3.30
2022-09-18T12:05:20.720Z,2.80
2022-09-18T12:07:58.326Z,2.60
2022-09-18T12:11:06.426Z,2.80
2022-09-18T12:14:05.112Z,3.00
2022-09-18T12:17:03.351Z,2.40
2022-09-18T12:19:38.892Z,2.70
2022-09-18T12:22:09.611Z,2.60
2022-09-18T12:24:41.798Z,2.50
2022-09-18T12:27:40.663Z,2.60
2022-09-18T12:30:22.432Z,2.30
2022-09-18T12:33:20.908Z,2.70
2022-09-18T12:36:18.962Z,2.80
2022-09-18T12:39:15.542Z,2.20
2022-09-18T12:42:03.980Z,2.00
2022-09-18T12:45:07.003Z,2.20
2022-09-18T12:47:49.602Z,2.50
2022-09-18T12:50:57.291Z,2.30
2022-09-18T12:54:10.962Z,2.40
2022-09-18T12:56:52.968Z,2.40
2022-09-18T12:59:31.822Z,2.60
2022-09-18T13:02:24.386Z,2.70
2022-09-18T13:05:01.237Z,2.30
2022-09-18T13:07:52.056Z,1.80
2022-09-18T13:10:32.216Z,2.40
2022-09-18T13:13:09.887Z,2.40
2022-09-18T13:15:51.025Z,2.40
2022-09-18T13:18:41.857Z,2.50
2022-09-18T13:21:47.201Z,2.40
2022-09-18T13:24:22.897Z,2.60
2022-09-18T13:26:52.676Z,2.60
2022-09-18T13:29:45.217Z,2.20
2022-09-18T13:32:15.941Z,2.50
2022-09-18T13:34:53.090Z,2.30
2022-09-18T13:37:24.773Z,2.70
2022-09-18T13:40:10.148Z,3.00
2022-09-18T13:42:43.486Z,2.70
2022-09-18T13:45:25.526Z,2.60
2022-09-18T13:48:02.009Z,2.60
2022-09-18T13:50:31.873Z,2.50
2022-09-18T13:53:02.738Z,2.50
2022-09-18T13:55:49.424Z,2.50
2022-09-18T13:58:34.329Z,2.60
2022-09-18T14:01:08.456Z,2.70
2022-09-18T14:03:40.437Z,2.20
2022-09-18T14:06:37.249Z,2.80
2022-09-18T14:09:44.847Z,3.10
2022-09-18T14:12:16.122Z,2.40
2022-09-18T14:14:57.795Z,2.50
2022-09-18T14:17:26.430Z,2.90
2022-09-18T14:20:18.536Z,2.80
2022-09-18T14:22:46.569Z,2.80
2022-09-18T14:25:35.456Z,2.60
2022-09-18T14:28:06.397Z,2.60
2022-09-18T14:30:35.092Z,2.60
2022-09-18T14:33:23.465Z,2.40
2022-09-18T14:36:04.698Z,3.70
2022-09-18T14:38:41.017Z,2.80
2022-09-18T14:41:21.488Z,2.50
2022-09-18T14:44:00.324Z,3.00
2022-09-18T14:46:29.366Z,2.50
2022-09-18T14:48:57.135Z,2.60
2022-09-18T14:51:28.366Z,2.60
2022-09-18T14:54:00.379Z,2.30
2022-09-18T14:56:38.301Z,2.40
2022-09-18T14:59:14.397Z,2.80
2022-09-18T15:01:43.379Z,2.20
2022-09-18T15:04:17.968Z,1.90
2022-09-18T15:06:53.840Z,1.90
2022-09-18T15:09:33.429Z,1.40
2022-09-18T15:12:03.192Z,1.80
2022-09-18T15:14:44.101Z,2.00
2022-09-18T15:17:24.099Z,2.40
2022-09-18T15:19:57.310Z,1.90
2022-09-18T15:22:28.630Z,2.30
2022-09-18T15:25:01.516Z,2.00
2022-09-18T15:27:33.462Z,1.80
2022-09-18T15:30:08.619Z,1.50
2022-09-18T15:32:42.180Z,1.90
2022-09-18T15:35:21.310Z,1.80
2022-09-18T15:38:03.607Z,2.00
2022-09-18T15:40:37.312Z,3.70
2022-09-18T15:43:16.346Z,2.10
2022-09-18T15:46:09.712Z,2.20
2022-09-18T15:48:44.312Z,1.90
2022-09-18T15:51:37.639Z,2.20
2022-09-18T15:54:13.206Z,1.90
2022-09-18T15:56:58.738Z,2.20
2022-09-18T15:59:39.291Z,2.10
2022-09-18T16:02:21.451Z,2.20
2022-09-18T16:04:49.427Z,2.10
2022-09-18T16:07:25.969Z,2.20
2022-09-18T16:09:57.277Z,2.30
2022-09-18T16:12:31.292Z,2.30
2022-09-18T16:15:13.496Z,2.30
2022-09-18T16:17:45.507Z,2.20
2022-09-18T16:20:30.727Z,2.20
2022-09-18T16:23:14.770Z,1.90
2022-09-18T16:25:48.248Z,1.70
2022-09-18T16:28:27.362Z,2.10
2022-09-18T16:30:57.514Z,2.50
2022-09-18T16:33:30.050Z,2.00
2022-09-18T16:36:10.446Z,2.10
2022-09-18T16:38:40.057Z,2.40
2022-09-18T16:41:11.464Z,2.40
2022-09-18T16:43:40.179Z,2.40
2022-09-18T16:46:08.981Z,2.40
2022-09-18T16:48:37.404Z,2.50
2022-09-18T16:51:06.043Z,2.40
2022-09-18T16:53:38.576Z,2.80
2022-09-18T16:56:14.069Z,2.50
2022-09-18T16:58:45.229Z,3.10
2022-09-18T17:01:13.229Z,2.40
2022-09-18T17:03:43.199Z,2.50
2022-09-18T17:06:11.272Z,2.50
2022-09-18T17:08:42.112Z,2.30
2022-09-18T17:13:41.716Z,2.20
2022-09-18T17:16:11.055Z,2.30
2022-09-18T17:18:41.963Z,2.20
2022-09-18T17:21:13.716Z,2.60
2022-09-18T17:23:44.145Z,2.80
2022-09-18T17:26:15.319Z,3.10
2022-09-18T17:28:44.381Z,2.70
2022-09-18T17:31:19.301Z,3.00
2022-09-18T17:33:47.810Z,3.00
2022-09-18T17:36:17.983Z,3.00
2022-09-18T17:38:47.419Z,3.80
2022-09-18T17:41:20.819Z,3.00
2022-09-18T17:43:54.620Z,3.10
2022-09-18T17:46:22.837Z,3.10
2022-09-18T17:48:57.855Z,2.80
2022-09-18T17:51:28.950Z,3.30
2022-09-18T17:54:03.097Z,3.00
2022-09-18T17:56:34.190Z,2.40
2022-09-18T17:59:06.073Z,3.00
2022-09-18T18:01:40.725Z,2.70
2022-09-18T18:06:40.232Z,3.00
2022-09-18T18:09:10.153Z,3.10
2022-09-18T18:11:39.036Z,2.60
2022-09-18T18:14:09.272Z,2.50
2022-09-18T18:16:39.972Z,2.70
2022-09-18T18:19:12.785Z,3.00
2022-09-18T18:21:44.402Z,2.80
2022-09-18T18:24:18.401Z,2.80
2022-09-18T18:26:49.789Z,2.90
2022-09-18T18:29:23.025Z,2.60
2022-09-18T18:31:54.571Z,2.90
2022-09-18T18:34:25.260Z,2.70
2022-09-18T18:36:57.800Z,2.80
2022-09-18T18:39:26.094Z,3.10
2022-09-18T18:41:55.828Z,3.00
2022-09-18T18:44:26.388Z,2.80
2022-09-18T18:46:57.952Z,2.70
2022-09-18T18:49:26.182Z,3.20
2022-09-18T18:51:55.042Z,2.80
2022-09-18T18:54:25.102Z,3.00
2022-09-18T18:56:56.367Z,3.30
2022-09-18T18:59:27.606Z,2.70
2022-09-18T19:01:59.926Z,2.90
2022-09-18T19:04:30.889Z,2.80
2022-09-18T19:07:02.439Z,2.90
2022-09-18T19:09:32.866Z,3.00
2022-09-18T19:12:04.243Z,3.00
2022-09-18T19:14:34.541Z,3.40
2022-09-18T19:17:03.221Z,3.10
2022-09-18T19:19:31.537Z,3.40
2022-09-18T19:22:02.973Z,4.10
2022-09-18T19:24:32.366Z,3.50
2022-09-18T19:27:02.161Z,4.30
2022-09-18T19:29:32.485Z,3.70
2022-09-18T19:32:02.533Z,3.70
2022-09-18T19:34:30.758Z,3.80
2022-09-18T19:37:02.535Z,4.00
2022-09-18T19:39:31.225Z,5.40
2022-09-18T19:42:14.856Z,4.50
2022-09-18T19:44:56.893Z,3.90
2022-09-18T19:47:45.962Z,4.40
2022-09-18T19:50:33.071Z,4.10
2022-09-18T19:53:02.869Z,4.60
2022-09-18T19:55:30.839Z,4.60
2022-09-18T19:58:03.291Z,4.90
2022-09-18T20:00:33.635Z,4.40
2022-09-18T20:03:01.756Z,4.70
2022-09-18T20:05:33.998Z,4.60
2022-09-18T20:08:02.186Z,4.70
2022-09-18T20:10:42.103Z,5.20
2022-09-18T20:13:13.483Z,5.00
2022-09-18T20:15:45.631Z,5.40
2022-09-18T20:18:19.976Z,5.00
2022-09-18T20:20:53.127Z,5.70
2022-09-18T20:23:25.674Z,4.50
2022-09-18T20:25:53.735Z,5.50
2022-09-18T20:28:23.811Z,5.70
2022-09-18T20:30:51.734Z,5.50
2022-09-18T20:33:22.937Z,6.20
2022-09-18T20:35:59.070Z,5.70
2022-09-18T20:38:35.043Z,5.40
2022-09-18T20:41:11.598Z,5.40
2022-09-18T20:43:47.515Z,5.50
2022-09-18T20:46:18.390Z,5.70
2022-09-18T20:48:53.243Z,5.50
2022-09-18T20:51:37.467Z,5.10
2022-09-18T20:54:08.506Z,5.00
2022-09-18T20:56:44.605Z,4.70
2022-09-18T20:59:17.441Z,4.70
2022-09-18T21:01:47.269Z,4.50
2022-09-18T21:04:17.545Z,4.70
2022-09-18T21:06:55.755Z,5.00
2022-09-18T21:09:26.614Z,5.50
2022-09-18T21:11:57.119Z,5.50
2022-09-18T21:14:27.561Z,4.50
2022-09-18T21:16:56.355Z,4.60
2022-09-18T21:19:28.098Z,5.40
2022-09-18T21:21:55.962Z,4.20
2022-09-18T21:24:23.934Z,4.00
2022-09-18T21:26:51.697Z,3.80
2022-09-18T21:29:27.035Z,3.50
2022-09-18T21:31:57.367Z,3.70
2022-09-18T21:34:31.366Z,4.10
2022-09-18T21:37:04.719Z,3.70
2022-09-18T21:39:33.069Z,3.50
2022-09-18T21:42:02.669Z,3.90
2022-09-18T21:44:31.880Z,4.10
2022-09-18T21:47:02.146Z,3.80
2022-09-18T21:49:31.079Z,3.30
2022-09-18T21:52:07.576Z,3.40
2022-09-18T21:54:35.672Z,4.00
2022-09-18T21:57:04.284Z,4.00
2022-09-18T21:59:36.599Z,3.70
2022-09-18T22:02:04.866Z,3.60
2022-09-18T22:04:34.000Z,3.40
2022-09-18T22:07:02.512Z,3.20
2022-09-18T22:09:40.777Z,3.50
2022-09-18T22:12:09.915Z,3.60
2022-09-18T22:14:38.499Z,3.40
2022-09-18T22:17:08.127Z,3.40
2022-09-18T22:19:40.515Z,3.20
2022-09-18T22:22:11.005Z,3.30
2022-09-18T22:24:39.386Z,2.90
2022-09-18T22:27:10.425Z,3.10
2022-09-18T22:29:39.920Z,3.60
2022-09-18T22:32:10.911Z,3.00
2022-09-18T22:34:39.248Z,4.00
2022-09-18T22:37:08.078Z,2.90
2022-09-18T22:39:35.898Z,3.30
2022-09-18T22:42:03.764Z,3.00
2022-09-18T22:44:31.711Z,3.90
2022-09-18T22:46:59.771Z,3.00
2022-09-18T22:49:27.673Z,3.30
2022-09-18T22:51:56.051Z,3.40
2022-09-18T22:54:26.115Z,2.90
2022-09-18T22:56:55.628Z,3.10
2022-09-18T22:59:26.349Z,3.70
2022-09-18T23:02:00.878Z,3.70
2022-09-18T23:04:31.913Z,3.10
2022-09-18T23:07:00.337Z,3.20
2022-09-18T23:09:29.491Z,2.80
2022-09-18T23:11:58.352Z,2.90
2022-09-18T23:14:29.374Z,3.00
2022-09-18T23:16:58.286Z,3.10
2022-09-18T23:19:29.203Z,2.80
2022-09-18T23:21:58.264Z,3.00
2022-09-18T23:24:26.981Z,2.90
2022-09-18T23:26:58.015Z,3.20
2022-09-18T23:29:28.037Z,3.40
2022-09-18T23:31:57.617Z,3.10
2022-09-18T23:34:30.330Z,2.80
2022-09-18T23:36:58.710Z,3.30
2022-09-18T23:39:32.817Z,3.30
2022-09-18T23:42:02.189Z,2.80
2022-09-18T23:44:31.645Z,3.10
2022-09-18T23:47:00.347Z,3.00
2022-09-18T23:49:29.393Z,2.90
2022-09-18T23:51:59.529Z,2.70
2022-09-18T23:54:30.174Z,3.10
2022-09-18T23:56:58.578Z,2.80
2022-09-18T23:59:27.508Z,3.20
